sensor_id;sensor_type;location;lat;lon;timestamp;pressure;altitude;pressure_sealevel;temperature;humidity
67373;BME280;54257;54.496;18.412;2023-02-12T00:00:44;101292.33;;;1.66;89.29
67373;BME280;54257;54.496;18.412;2023-02-12T00:03:31;101297.10;;;1.77;89.46
67373;BME280;54257;54.496;18.412;2023-02-12T00:06:02;101301.05;;;1.84;89.57
67373;BME280;54257;54.496;18.412;2023-02-12T00:08:29;101299.02;;;1.91;89.42
67373;BME280;54257;54.496;18.412;2023-02-12T00:10:57;101300.17;;;1.93;89.07
67373;BME280;54257;54.496;18.412;2023-02-12T00:13:29;101299.56;;;1.92;88.38
67373;BME280;54257;54.496;18.412;2023-02-12T00:15:57;101301.63;;;1.90;88.33
67373;BME280;54257;54.496;18.412;2023-02-12T00:18:24;101305.60;;;1.89;88.31
67373;BME280;54257;54.496;18.412;2023-02-12T00:20:51;101308.59;;;1.88;88.12
67373;BME280;54257;54.496;18.412;2023-02-12T00:23:19;101305.46;;;1.85;87.97
67373;BME280;54257;54.496;18.412;2023-02-12T00:25:46;101309.27;;;1.82;87.83
67373;BME280;54257;54.496;18.412;2023-02-12T00:28:13;101312.52;;;1.78;87.81
67373;BME280;54257;54.496;18.412;2023-02-12T00:30:41;101310.92;;;1.74;87.69
67373;BME280;54257;54.496;18.412;2023-02-12T00:33:09;101310.02;;;1.69;87.68
67373;BME280;54257;54.496;18.412;2023-02-12T00:35:36;101313.84;;;1.66;87.67
67373;BME280;54257;54.496;18.412;2023-02-12T00:38:03;101318.00;;;1.63;87.52
67373;BME280;54257;54.496;18.412;2023-02-12T00:40:30;101322.48;;;1.60;87.60
67373;BME280;54257;54.496;18.412;2023-02-12T00:42:57;101324.01;;;1.58;87.68
67373;BME280;54257;54.496;18.412;2023-02-12T00:45:24;101331.67;;;1.56;87.84
67373;BME280;54257;54.496;18.412;2023-02-12T00:47:51;101332.43;;;1.56;87.96
67373;BME280;54257;54.496;18.412;2023-02-12T00:50:18;101334.33;;;1.58;88.18
67373;BME280;54257;54.496;18.412;2023-02-12T00:52:46;101337.92;;;1.62;88.11
67373;BME280;54257;54.496;18.412;2023-02-12T00:55:13;101334.48;;;1.65;88.22
67373;BME280;54257;54.496;18.412;2023-02-12T00:57:40;101331.10;;;1.69;88.17
67373;BME280;54257;54.496;18.412;2023-02-12T01:00:07;101335.06;;;1.71;87.88
67373;BME280;54257;54.496;18.412;2023-02-12T01:02:35;101338.27;;;1.71;87.58
67373;BME280;54257;54.496;18.412;2023-02-12T01:05:02;101340.03;;;1.72;87.65
67373;BME280;54257;54.496;18.412;2023-02-12T01:07:30;101343.13;;;1.73;87.59
67373;BME280;54257;54.496;18.412;2023-02-12T01:09:57;101339.55;;;1.72;87.61
67373;BME280;54257;54.496;18.412;2023-02-12T01:12:24;101342.77;;;1.68;87.27
67373;BME280;54257;54.496;18.412;2023-02-12T01:14:51;101350.02;;;1.63;86.81
67373;BME280;54257;54.496;18.412;2023-02-12T01:17:18;101353.14;;;1.58;86.73
67373;BME280;54257;54.496;18.412;2023-02-12T01:19:45;101352.44;;;1.51;86.55
67373;BME280;54257;54.496;18.412;2023-02-12T01:22:13;101354.95;;;1.41;86.25
67373;BME280;54257;54.496;18.412;2023-02-12T01:24:40;101363.44;;;1.31;86.08
67373;BME280;54257;54.496;18.412;2023-02-12T01:27:08;101358.55;;;1.22;85.92
67373;BME280;54257;54.496;18.412;2023-02-12T01:29:35;101360.41;;;1.12;85.99
67373;BME280;54257;54.496;18.412;2023-02-12T01:32:03;101361.95;;;1.03;86.09
67373;BME280;54257;54.496;18.412;2023-02-12T01:34:30;101372.92;;;0.95;86.19
67373;BME280;54257;54.496;18.412;2023-02-12T01:36:56;101378.39;;;0.88;86.22
67373;BME280;54257;54.496;18.412;2023-02-12T01:39:24;101384.16;;;0.80;86.23
67373;BME280;54257;54.496;18.412;2023-02-12T01:41:50;101389.54;;;0.75;86.51
67373;BME280;54257;54.496;18.412;2023-02-12T01:44:21;101387.05;;;0.74;86.96
67373;BME280;54257;54.496;18.412;2023-02-12T01:46:55;101383.84;;;0.73;87.15
67373;BME280;54257;54.496;18.412;2023-02-12T01:49:35;101386.33;;;0.69;87.03
67373;BME280;54257;54.496;18.412;2023-02-12T01:54:43;101392.34;;;0.70;87.60
67373;BME280;54257;54.496;18.412;2023-02-12T01:57:11;101396.31;;;0.70;87.59
67373;BME280;54257;54.496;18.412;2023-02-12T01:59:42;101399.92;;;0.73;88.00
67373;BME280;54257;54.496;18.412;2023-02-12T02:02:11;101394.89;;;0.75;88.24
67373;BME280;54257;54.496;18.412;2023-02-12T02:04:49;101391.54;;;0.71;87.75
67373;BME280;54257;54.496;18.412;2023-02-12T02:07:18;101391.40;;;0.59;87.22
67373;BME280;54257;54.496;18.412;2023-02-12T02:09:45;101397.01;;;0.48;86.91
67373;BME280;54257;54.496;18.412;2023-02-12T02:12:13;101402.91;;;0.43;87.22
67373;BME280;54257;54.496;18.412;2023-02-12T02:15:01;101404.73;;;0.36;87.22
67373;BME280;54257;54.496;18.412;2023-02-12T02:17:41;101403.03;;;0.30;87.22
67373;BME280;54257;54.496;18.412;2023-02-12T02:20:38;101407.09;;;0.21;86.96
67373;BME280;54257;54.496;18.412;2023-02-12T02:26:19;101409.64;;;0.01;87.07
67373;BME280;54257;54.496;18.412;2023-02-12T02:31:45;101417.32;;;-0.19;87.40
67373;BME280;54257;54.496;18.412;2023-02-12T02:34:20;101425.00;;;-0.24;87.66
67373;BME280;54257;54.496;18.412;2023-02-12T02:37:14;101422.93;;;-0.29;87.79
67373;BME280;54257;54.496;18.412;2023-02-12T02:39:54;101420.71;;;-0.29;88.34
67373;BME280;54257;54.496;18.412;2023-02-12T02:45:21;101420.03;;;-0.23;89.39
67373;BME280;54257;54.496;18.412;2023-02-12T02:48:02;101418.21;;;-0.23;89.63
67373;BME280;54257;54.496;18.412;2023-02-12T02:50:34;101415.97;;;-0.21;89.78
67373;BME280;54257;54.496;18.412;2023-02-12T02:53:29;101418.60;;;-0.18;90.09
67373;BME280;54257;54.496;18.412;2023-02-12T02:55:59;101420.34;;;-0.17;89.87
67373;BME280;54257;54.496;18.412;2023-02-12T02:58:34;101426.89;;;-0.19;89.60
67373;BME280;54257;54.496;18.412;2023-02-12T03:01:08;101435.18;;;-0.21;89.42
67373;BME280;54257;54.496;18.412;2023-02-12T03:03:52;101438.33;;;-0.23;89.12
67373;BME280;54257;54.496;18.412;2023-02-12T03:08:59;101456.79;;;-0.33;89.09
67373;BME280;54257;54.496;18.412;2023-02-12T03:11:29;101459.77;;;-0.40;88.95
67373;BME280;54257;54.496;18.412;2023-02-12T03:14:17;101461.39;;;-0.48;89.13
67373;BME280;54257;54.496;18.412;2023-02-12T03:17:01;101459.81;;;-0.55;89.08
67373;BME280;54257;54.496;18.412;2023-02-12T03:19:35;101468.10;;;-0.62;89.07
67373;BME280;54257;54.496;18.412;2023-02-12T03:22:10;101472.95;;;-0.70;88.96
67373;BME280;54257;54.496;18.412;2023-02-12T03:24:50;101482.08;;;-0.79;88.73
67373;BME280;54257;54.496;18.412;2023-02-12T03:27:26;101485.02;;;-0.86;88.97
67373;BME280;54257;54.496;18.412;2023-02-12T03:29:55;101482.50;;;-0.92;88.98
67373;BME280;54257;54.496;18.412;2023-02-12T03:33:26;101479.85;;;-0.93;89.22
67373;BME280;54257;54.496;18.412;2023-02-12T03:35:41;101482.79;;;-0.90;89.77
67373;BME280;54257;54.496;18.412;2023-02-12T03:41:03;101481.52;;;-0.79;90.70
67373;BME280;54257;54.496;18.412;2023-02-12T03:43:46;101484.77;;;-0.79;90.38
67373;BME280;54257;54.496;18.412;2023-02-12T03:46:57;101488.81;;;-0.73;90.88
67373;BME280;54257;54.496;18.412;2023-02-12T03:50:10;101491.75;;;-0.68;91.30
67373;BME280;54257;54.496;18.412;2023-02-12T03:52:40;101494.10;;;-0.62;91.23
67373;BME280;54257;54.496;18.412;2023-02-12T03:55:08;101498.38;;;-0.59;91.38
67373;BME280;54257;54.496;18.412;2023-02-12T03:57:42;101500.89;;;-0.61;91.02
67373;BME280;54257;54.496;18.412;2023-02-12T04:00:21;101501.04;;;-0.67;90.87
67373;BME280;54257;54.496;18.412;2023-02-12T04:02:48;101508.30;;;-0.71;90.69
67373;BME280;54257;54.496;18.412;2023-02-12T04:05:19;101506.70;;;-0.77;90.38
67373;BME280;54257;54.496;18.412;2023-02-12T04:07:47;101505.02;;;-0.87;90.23
67373;BME280;54257;54.496;18.412;2023-02-12T04:10:15;101502.71;;;-0.97;90.08
67373;BME280;54257;54.496;18.412;2023-02-12T04:12:53;101502.09;;;-1.03;90.12
67373;BME280;54257;54.496;18.412;2023-02-12T04:15:48;101505.87;;;-1.10;90.12
67373;BME280;54257;54.496;18.412;2023-02-12T04:18:30;101504.56;;;-1.16;90.26
67373;BME280;54257;54.496;18.412;2023-02-12T04:21:10;101508.95;;;-1.21;90.38
67373;BME280;54257;54.496;18.412;2023-02-12T04:32:21;101521.69;;;-1.22;91.25
67373;BME280;54257;54.496;18.412;2023-02-12T04:37:40;101525.05;;;-1.19;90.94
67373;BME280;54257;54.496;18.412;2023-02-12T04:40:11;101530.74;;;-1.19;90.72
67373;BME280;54257;54.496;18.412;2023-02-12T04:42:43;101528.63;;;-1.20;90.70
67373;BME280;54257;54.496;18.412;2023-02-12T04:45:15;101532.63;;;-1.20;90.74
67373;BME280;54257;54.496;18.412;2023-02-12T04:47:43;101534.71;;;-1.14;91.45
67373;BME280;54257;54.496;18.412;2023-02-12T04:50:11;101537.04;;;-1.04;91.92
67373;BME280;54257;54.496;18.412;2023-02-12T04:52:39;101535.34;;;-1.01;91.67
67373;BME280;54257;54.496;18.412;2023-02-12T04:55:07;101533.30;;;-0.99;91.28
67373;BME280;54257;54.496;18.412;2023-02-12T04:57:34;101532.13;;;-0.99;91.04
67373;BME280;54257;54.496;18.412;2023-02-12T05:00:08;101528.86;;;-1.00;91.04
67373;BME280;54257;54.496;18.412;2023-02-12T05:02:35;101527.65;;;-1.04;91.11
67373;BME280;54257;54.496;18.412;2023-02-12T05:05:03;101529.52;;;-1.14;90.91
67373;BME280;54257;54.496;18.412;2023-02-12T05:07:31;101536.27;;;-1.26;90.84
67373;BME280;54257;54.496;18.412;2023-02-12T05:09:58;101544.84;;;-1.37;90.68
67373;BME280;54257;54.496;18.412;2023-02-12T05:12:26;101548.93;;;-1.48;90.95
67373;BME280;54257;54.496;18.412;2023-02-12T05:14:53;101549.38;;;-1.57;91.19
67373;BME280;54257;54.496;18.412;2023-02-12T05:17:22;101548.89;;;-1.65;91.38
67373;BME280;54257;54.496;18.412;2023-02-12T05:19:49;101548.45;;;-1.70;91.61
67373;BME280;54257;54.496;18.412;2023-02-12T05:22:16;101542.90;;;-1.70;91.86
67373;BME280;54257;54.496;18.412;2023-02-12T05:24:44;101547.26;;;-1.68;92.32
67373;BME280;54257;54.496;18.412;2023-02-12T05:27:11;101552.74;;;-1.66;92.61
67373;BME280;54257;54.496;18.412;2023-02-12T05:29:40;101554.55;;;-1.62;93.00
67373;BME280;54257;54.496;18.412;2023-02-12T05:32:07;101555.52;;;-1.56;93.00
67373;BME280;54257;54.496;18.412;2023-02-12T05:34:35;101554.59;;;-1.50;93.31
67373;BME280;54257;54.496;18.412;2023-02-12T05:37:02;101553.02;;;-1.43;93.63
67373;BME280;54257;54.496;18.412;2023-02-12T05:39:29;101554.78;;;-1.40;93.24
67373;BME280;54257;54.496;18.412;2023-02-12T05:41:56;101555.84;;;-1.40;92.98
67373;BME280;54257;54.496;18.412;2023-02-12T05:44:24;101554.63;;;-1.40;92.92
67373;BME280;54257;54.496;18.412;2023-02-12T05:46:52;101553.17;;;-1.44;92.64
67373;BME280;54257;54.496;18.412;2023-02-12T05:49:19;101555.80;;;-1.44;92.54
67373;BME280;54257;54.496;18.412;2023-02-12T05:51:46;101559.80;;;-1.46;92.38
67373;BME280;54257;54.496;18.412;2023-02-12T05:54:13;101567.52;;;-1.50;92.27
67373;BME280;54257;54.496;18.412;2023-02-12T05:56:45;101574.92;;;-1.55;92.02
67373;BME280;54257;54.496;18.412;2023-02-12T06:02:24;101573.84;;;-1.70;91.85
67373;BME280;54257;54.496;18.412;2023-02-12T06:04:51;101579.09;;;-1.76;92.02
67373;BME280;54257;54.496;18.412;2023-02-12T06:07:27;101580.41;;;-1.79;92.04
67373;BME280;54257;54.496;18.412;2023-02-12T06:09:57;101580.52;;;-1.80;92.33
67373;BME280;54257;54.496;18.412;2023-02-12T06:12:25;101582.80;;;-1.77;92.85
67373;BME280;54257;54.496;18.412;2023-02-12T06:14:53;101587.09;;;-1.74;93.12
67373;BME280;54257;54.496;18.412;2023-02-12T06:17:20;101589.42;;;-1.72;93.17
67373;BME280;54257;54.496;18.412;2023-02-12T06:19:47;101595.17;;;-1.70;93.27
67373;BME280;54257;54.496;18.412;2023-02-12T06:22:14;101601.20;;;-1.64;93.75
67373;BME280;54257;54.496;18.412;2023-02-12T06:24:41;101603.52;;;-1.57;93.99
67373;BME280;54257;54.496;18.412;2023-02-12T06:27:08;101607.69;;;-1.50;94.01
67373;BME280;54257;54.496;18.412;2023-02-12T06:29:36;101608.66;;;-1.45;94.12
67373;BME280;54257;54.496;18.412;2023-02-12T06:32:03;101607.13;;;-1.36;94.23
67373;BME280;54257;54.496;18.412;2023-02-12T06:34:30;101605.35;;;-1.26;94.46
67373;BME280;54257;54.496;18.412;2023-02-12T06:36:57;101607.83;;;-1.19;94.30
67373;BME280;54257;54.496;18.412;2023-02-12T06:39:24;101612.42;;;-1.15;94.18
67373;BME280;54257;54.496;18.412;2023-02-12T06:41:51;101612.40;;;-1.13;93.91
67373;BME280;54257;54.496;18.412;2023-02-12T06:44:18;101607.55;;;-1.13;93.70
67373;BME280;54257;54.496;18.412;2023-02-12T06:46:45;101600.87;;;-1.15;93.47
67373;BME280;54257;54.496;18.412;2023-02-12T06:49:12;101602.30;;;-1.17;93.40
67373;BME280;54257;54.496;18.412;2023-02-12T06:51:41;101606.30;;;-1.21;93.27
67373;BME280;54257;54.496;18.412;2023-02-12T06:54:16;101605.58;;;-1.25;93.25
67373;BME280;54257;54.496;18.412;2023-02-12T06:56:45;101609.79;;;-1.29;93.32
67373;BME280;54257;54.496;18.412;2023-02-12T06:59:15;101610.48;;;-1.30;93.56
67373;BME280;54257;54.496;18.412;2023-02-12T07:01:43;101605.80;;;-1.28;93.78
67373;BME280;54257;54.496;18.412;2023-02-12T07:04:10;101599.80;;;-1.24;94.12
67373;BME280;54257;54.496;18.412;2023-02-12T07:06:37;101592.60;;;-1.17;94.76
67373;BME280;54257;54.496;18.412;2023-02-12T07:09:05;101591.88;;;-1.04;95.50
67373;BME280;54257;54.496;18.412;2023-02-12T07:11:34;101586.83;;;-0.89;96.36
67373;BME280;54257;54.496;18.412;2023-02-12T07:14:01;101587.05;;;-0.71;97.11
67373;BME280;54257;54.496;18.412;2023-02-12T07:16:29;101586.15;;;-0.57;97.14
67373;BME280;54257;54.496;18.412;2023-02-12T07:18:56;101588.30;;;-0.46;96.70
67373;BME280;54257;54.496;18.412;2023-02-12T07:21:23;101587.30;;;-0.36;96.58
67373;BME280;54257;54.496;18.412;2023-02-12T07:23:52;101586.67;;;-0.28;96.52
67373;BME280;54257;54.496;18.412;2023-02-12T07:26:20;101588.16;;;-0.16;96.76
67373;BME280;54257;54.496;18.412;2023-02-12T07:28:49;101586.04;;;-0.08;96.57
67373;BME280;54257;54.496;18.412;2023-02-12T07:31:21;101588.44;;;-0.01;96.37
67373;BME280;54257;54.496;18.412;2023-02-12T07:33:53;101588.11;;;0.03;96.17
67373;BME280;54257;54.496;18.412;2023-02-12T07:36:21;101589.34;;;0.06;96.04
67373;BME280;54257;54.496;18.412;2023-02-12T07:38:48;101591.25;;;0.08;96.10
67373;BME280;54257;54.496;18.412;2023-02-12T07:41:18;101590.02;;;0.09;95.92
67373;BME280;54257;54.496;18.412;2023-02-12T07:43:47;101594.88;;;0.09;95.52
67373;BME280;54257;54.496;18.412;2023-02-12T07:46:17;101595.61;;;0.10;95.47
67373;BME280;54257;54.496;18.412;2023-02-12T07:48:50;101594.50;;;0.13;95.57
67373;BME280;54257;54.496;18.412;2023-02-12T07:51:17;101593.33;;;0.19;95.81
67373;BME280;54257;54.496;18.412;2023-02-12T07:53:48;101589.66;;;0.27;95.80
67373;BME280;54257;54.496;18.412;2023-02-12T07:56:20;101591.98;;;0.35;95.85
67373;BME280;54257;54.496;18.412;2023-02-12T07:58:50;101589.69;;;0.46;95.55
67373;BME280;54257;54.496;18.412;2023-02-12T08:01:30;101587.36;;;0.56;95.37
67373;BME280;54257;54.496;18.412;2023-02-12T08:04:00;101594.55;;;0.68;95.40
67373;BME280;54257;54.496;18.412;2023-02-12T08:06:29;101589.69;;;0.78;94.97
67373;BME280;54257;54.496;18.412;2023-02-12T08:08:59;101576.20;;;0.82;94.06
67373;BME280;54257;54.496;18.412;2023-02-12T08:11:29;101581.28;;;0.91;93.73
67373;BME280;54257;54.496;18.412;2023-02-12T08:13:59;101579.68;;;0.98;93.63
67373;BME280;54257;54.496;18.412;2023-02-12T08:16:27;101574.22;;;1.05;93.14
67373;BME280;54257;54.496;18.412;2023-02-12T08:18:55;101579.14;;;1.12;92.95
67373;BME280;54257;54.496;18.412;2023-02-12T08:21:25;101582.20;;;1.17;92.35
67373;BME280;54257;54.496;18.412;2023-02-12T08:23:55;101579.74;;;1.22;92.23
67373;BME280;54257;54.496;18.412;2023-02-12T08:26:35;101576.38;;;1.28;91.98
67373;BME280;54257;54.496;18.412;2023-02-12T08:29:07;101571.33;;;1.30;91.26
67373;BME280;54257;54.496;18.412;2023-02-12T08:31:38;101573.06;;;1.33;91.33
67373;BME280;54257;54.496;18.412;2023-02-12T08:34:09;101570.29;;;1.36;91.37
67373;BME280;54257;54.496;18.412;2023-02-12T08:36:41;101574.29;;;1.39;91.53
67373;BME280;54257;54.496;18.412;2023-02-12T08:39:10;101570.63;;;1.42;91.49
67373;BME280;54257;54.496;18.412;2023-02-12T08:41:39;101576.27;;;1.44;90.99
67373;BME280;54257;54.496;18.412;2023-02-12T08:44:08;101572.58;;;1.46;90.94
67373;BME280;54257;54.496;18.412;2023-02-12T08:46:39;101573.71;;;1.45;90.48
67373;BME280;54257;54.496;18.412;2023-02-12T08:49:09;101573.60;;;1.48;90.75
67373;BME280;54257;54.496;18.412;2023-02-12T08:51:39;101583.05;;;1.50;90.70
67373;BME280;54257;54.496;18.412;2023-02-12T08:54:11;101581.30;;;1.54;90.67
67373;BME280;54257;54.496;18.412;2023-02-12T08:56:39;101578.41;;;1.57;90.60
67373;BME280;54257;54.496;18.412;2023-02-12T08:59:11;101576.03;;;1.62;90.73
67373;BME280;54257;54.496;18.412;2023-02-12T09:01:39;101568.13;;;1.66;90.51
67373;BME280;54257;54.496;18.412;2023-02-12T09:04:18;101568.39;;;1.72;90.53
67373;BME280;54257;54.496;18.412;2023-02-12T09:06:47;101565.55;;;1.78;90.90
67373;BME280;54257;54.496;18.412;2023-02-12T09:09:15;101559.70;;;1.83;90.70
67373;BME280;54257;54.496;18.412;2023-02-12T09:11:42;101557.67;;;1.88;90.41
67373;BME280;54257;54.496;18.412;2023-02-12T09:14:13;101563.13;;;1.91;90.11
67373;BME280;54257;54.496;18.412;2023-02-12T09:16:41;101560.73;;;1.93;90.31
67373;BME280;54257;54.496;18.412;2023-02-12T09:19:11;101569.45;;;1.96;90.32
67373;BME280;54257;54.496;18.412;2023-02-12T09:21:41;101572.60;;;2.00;90.34
67373;BME280;54257;54.496;18.412;2023-02-12T09:24:09;101577.54;;;2.05;90.21
67373;BME280;54257;54.496;18.412;2023-02-12T09:26:36;101577.75;;;2.10;89.86
67373;BME280;54257;54.496;18.412;2023-02-12T09:29:05;101575.89;;;2.16;89.97
67373;BME280;54257;54.496;18.412;2023-02-12T09:31:35;101569.98;;;2.25;90.16
67373;BME280;54257;54.496;18.412;2023-02-12T09:34:06;101565.98;;;2.35;89.99
67373;BME280;54257;54.496;18.412;2023-02-12T09:36:34;101563.50;;;2.42;89.02
67373;BME280;54257;54.496;18.412;2023-02-12T09:39:02;101567.48;;;2.48;88.86
67373;BME280;54257;54.496;18.412;2023-02-12T09:44:44;101559.71;;;2.59;88.77
67373;BME280;54257;54.496;18.412;2023-02-12T09:52:47;101554.23;;;2.71;88.26
67373;BME280;54257;54.496;18.412;2023-02-12T09:55:19;101555.41;;;2.74;87.92
67373;BME280;54257;54.496;18.412;2023-02-12T09:57:51;101556.14;;;2.75;87.44
67373;BME280;54257;54.496;18.412;2023-02-12T10:00:24;101560.71;;;2.75;87.28
67373;BME280;54257;54.496;18.412;2023-02-12T10:02:54;101557.65;;;2.76;87.49
67373;BME280;54257;54.496;18.412;2023-02-12T10:05:30;101556.93;;;2.78;87.48
67373;BME280;54257;54.496;18.412;2023-02-12T10:08:25;101558.10;;;2.83;87.32
67373;BME280;54257;54.496;18.412;2023-02-12T10:13:32;101549.18;;;2.99;86.94
67373;BME280;54257;54.496;18.412;2023-02-12T10:16:35;101549.62;;;3.08;86.49
67373;BME280;54257;54.496;18.412;2023-02-12T10:24:48;101536.66;;;3.29;84.32
67373;BME280;54257;54.496;18.412;2023-02-12T10:27:26;101532.34;;;3.33;84.09
67373;BME280;54257;54.496;18.412;2023-02-12T10:29:58;101519.71;;;3.35;83.94
67373;BME280;54257;54.496;18.412;2023-02-12T10:32:29;101510.93;;;3.41;84.65
67373;BME280;54257;54.496;18.412;2023-02-12T10:34:58;101506.77;;;3.46;84.60
67373;BME280;54257;54.496;18.412;2023-02-12T10:37:43;101512.47;;;3.53;84.49
67373;BME280;54257;54.496;18.412;2023-02-12T10:40:19;101510.42;;;3.57;84.32
67373;BME280;54257;54.496;18.412;2023-02-12T10:42:50;101502.07;;;3.64;84.01
67373;BME280;54257;54.496;18.412;2023-02-12T10:45:27;101492.49;;;3.67;83.49
67373;BME280;54257;54.496;18.412;2023-02-12T10:48:05;101489.54;;;3.68;83.34
67373;BME280;54257;54.496;18.412;2023-02-12T10:55:49;101495.45;;;3.93;82.89
67373;BME280;54257;54.496;18.412;2023-02-12T10:58:30;101497.52;;;4.06;82.57
67373;BME280;54257;54.496;18.412;2023-02-12T11:00:58;101495.07;;;4.19;82.60
67373;BME280;54257;54.496;18.412;2023-02-12T11:03:30;101494.25;;;4.35;82.42
67373;BME280;54257;54.496;18.412;2023-02-12T11:06:15;101486.45;;;4.53;82.26
67373;BME280;54257;54.496;18.412;2023-02-12T11:08:43;101473.02;;;4.67;81.17
67373;BME280;54257;54.496;18.412;2023-02-12T11:13:46;101466.80;;;4.92;80.34
67373;BME280;54257;54.496;18.412;2023-02-12T11:16:51;101469.98;;;4.99;79.24
67373;BME280;54257;54.496;18.412;2023-02-12T11:19:28;101469.56;;;5.06;79.28
67373;BME280;54257;54.496;18.412;2023-02-12T11:22:09;101474.00;;;5.09;78.90
67373;BME280;54257;54.496;18.412;2023-02-12T11:24:40;101476.77;;;5.11;78.65
67373;BME280;54257;54.496;18.412;2023-02-12T11:27:23;101476.77;;;5.10;79.20
67373;BME280;54257;54.496;18.412;2023-02-12T11:30:17;101484.66;;;5.22;79.60
67373;BME280;54257;54.496;18.412;2023-02-12T11:32:46;101488.52;;;5.41;79.29
67373;BME280;54257;54.496;18.412;2023-02-12T11:35:23;101482.59;;;5.46;77.82
67373;BME280;54257;54.496;18.412;2023-02-12T11:38:02;101484.33;;;5.50;78.28
67373;BME280;54257;54.496;18.412;2023-02-12T11:40:32;101479.67;;;5.59;78.99
67373;BME280;54257;54.496;18.412;2023-02-12T11:43:12;101480.52;;;5.68;78.57
67373;BME280;54257;54.496;18.412;2023-02-12T11:45:43;101481.16;;;5.70;78.33
67373;BME280;54257;54.496;18.412;2023-02-12T11:48:24;101482.52;;;5.73;79.05
67373;BME280;54257;54.496;18.412;2023-02-12T11:50:54;101482.26;;;5.72;79.72
67373;BME280;54257;54.496;18.412;2023-02-12T11:53:46;101477.81;;;5.56;80.78
67373;BME280;54257;54.496;18.412;2023-02-12T11:56:12;101467.55;;;5.42;81.86
67373;BME280;54257;54.496;18.412;2023-02-12T11:58:41;101466.20;;;5.28;82.37
67373;BME280;54257;54.496;18.412;2023-02-12T12:01:29;101460.88;;;5.16;83.01
67373;BME280;54257;54.496;18.412;2023-02-12T12:04:12;101459.70;;;5.00;83.53
67373;BME280;54257;54.496;18.412;2023-02-12T12:09:53;101461.09;;;4.74;84.63
67373;BME280;54257;54.496;18.412;2023-02-12T12:12:29;101458.88;;;4.61;85.69
67373;BME280;54257;54.496;18.412;2023-02-12T12:15:14;101450.73;;;4.53;86.32
67373;BME280;54257;54.496;18.412;2023-02-12T12:18:10;101443.32;;;4.35;87.19
67373;BME280;54257;54.496;18.412;2023-02-12T12:21:17;101441.28;;;4.30;87.86
67373;BME280;54257;54.496;18.412;2023-02-12T12:23:56;101435.16;;;4.24;88.58
67373;BME280;54257;54.496;18.412;2023-02-12T12:26:27;101424.73;;;4.14;89.29
67373;BME280;54257;54.496;18.412;2023-02-12T12:32:11;101412.85;;;3.96;90.65
67373;BME280;54257;54.496;18.412;2023-02-12T12:34:40;101409.30;;;3.86;91.27
67373;BME280;54257;54.496;18.412;2023-02-12T12:51:34;101384.29;;;3.56;94.47
67373;BME280;54257;54.496;18.412;2023-02-12T12:57:10;101403.16;;;3.52;95.57
67373;BME280;54257;54.496;18.412;2023-02-12T13:00:14;101410.13;;;3.50;95.66
67373;BME280;54257;54.496;18.412;2023-02-12T13:11:01;101434.65;;;3.53;95.97
67373;BME280;54257;54.496;18.412;2023-02-12T13:13:43;101441.20;;;3.55;95.78
67373;BME280;54257;54.496;18.412;2023-02-12T13:19:07;101430.44;;;3.56;95.78
67373;BME280;54257;54.496;18.412;2023-02-12T13:21:58;101428.29;;;3.50;96.21
67373;BME280;54257;54.496;18.412;2023-02-12T13:24:42;101420.23;;;3.43;96.21
67373;BME280;54257;54.496;18.412;2023-02-12T13:27:15;101415.76;;;3.42;96.73
67373;BME280;54257;54.496;18.412;2023-02-12T13:29:48;101423.15;;;3.43;96.71
67373;BME280;54257;54.496;18.412;2023-02-12T13:32:27;101425.36;;;3.44;97.50
67373;BME280;54257;54.496;18.412;2023-02-12T13:34:56;101422.08;;;3.45;97.45
67373;BME280;54257;54.496;18.412;2023-02-12T13:37:40;101419.39;;;3.45;97.49
67373;BME280;54257;54.496;18.412;2023-02-12T13:40:18;101417.30;;;3.47;97.69
67373;BME280;54257;54.496;18.412;2023-02-12T13:43:10;101417.96;;;3.44;98.12
67373;BME280;54257;54.496;18.412;2023-02-12T13:51:40;101399.58;;;3.44;98.80
67373;BME280;54257;54.496;18.412;2023-02-12T13:56:50;101409.59;;;3.41;99.05
67373;BME280;54257;54.496;18.412;2023-02-12T14:02:02;101417.09;;;3.36;99.47
67373;BME280;54257;54.496;18.412;2023-02-12T14:07:21;101405.52;;;3.33;100.00
67373;BME280;54257;54.496;18.412;2023-02-12T14:14:55;101392.52;;;3.35;100.00
67373;BME280;54257;54.496;18.412;2023-02-12T14:27:46;101383.02;;;3.44;100.00
67373;BME280;54257;54.496;18.412;2023-02-12T14:30:41;101383.02;;;3.47;100.00
67373;BME280;54257;54.496;18.412;2023-02-12T14:33:24;101384.27;;;3.48;100.00
67373;BME280;54257;54.496;18.412;2023-02-12T14:36:14;101378.63;;;3.49;100.00
67373;BME280;54257;54.496;18.412;2023-02-12T14:39:26;101378.80;;;3.52;100.00
67373;BME280;54257;54.496;18.412;2023-02-12T14:42:42;101375.67;;;3.53;100.00
67373;BME280;54257;54.496;18.412;2023-02-12T14:44:47;101380.81;;;3.54;100.00
67373;BME280;54257;54.496;18.412;2023-02-12T14:50:02;101387.66;;;3.60;100.00
67373;BME280;54257;54.496;18.412;2023-02-12T14:52:38;101391.06;;;3.63;100.00
67373;BME280;54257;54.496;18.412;2023-02-12T14:55:28;101385.62;;;3.68;100.00
67373;BME280;54257;54.496;18.412;2023-02-12T14:58:03;101383.84;;;3.69;100.00
67373;BME280;54257;54.496;18.412;2023-02-12T15:00:38;101386.09;;;3.70;100.00
67373;BME280;54257;54.496;18.412;2023-02-12T15:09:08;101372.39;;;3.70;100.00
67373;BME280;54257;54.496;18.412;2023-02-12T15:12:05;101366.86;;;3.68;100.00
67373;BME280;54257;54.496;18.412;2023-02-12T15:14:39;101362.35;;;3.68;100.00
67373;BME280;54257;54.496;18.412;2023-02-12T15:17:14;101362.56;;;3.67;100.00
67373;BME280;54257;54.496;18.412;2023-02-12T15:20:04;101371.73;;;3.67;100.00
67373;BME280;54257;54.496;18.412;2023-02-12T15:22:38;101361.60;;;3.67;100.00
67373;BME280;54257;54.496;18.412;2023-02-12T15:27:46;101355.14;;;3.67;100.00